sensor_id;sensor_type;location;lat;lon;timestamp;temperature;humidity
18101;DHT22;9177;49.156;8.142;2022-10-31T00:00:06;21.80;99.90
18101;DHT22;9177;49.156;8.142;2022-10-31T00:02:34;21.80;99.90
18101;DHT22;9177;49.156;8.142;2022-10-31T00:05:00;21.80;99.90
18101;DHT22;9177;49.156;8.142;2022-10-31T00:07:28;21.80;99.90
18101;DHT22;9177;49.156;8.142;2022-10-31T00:09:56;21.80;99.90
18101;DHT22;9177;49.156;8.142;2022-10-31T00:12:25;21.80;99.90
18101;DHT22;9177;49.156;8.142;2022-10-31T00:14:53;21.80;99.90
18101;DHT22;9177;49.156;8.142;2022-10-31T00:17:19;21.80;99.90
18101;DHT22;9177;49.156;8.142;2022-10-31T00:19:46;21.80;99.90
18101;DHT22;9177;49.156;8.142;2022-10-31T00:22:13;21.80;99.90
18101;DHT22;9177;49.156;8.142;2022-10-31T00:24:40;21.80;99.90
18101;DHT22;9177;49.156;8.142;2022-10-31T00:27:08;21.80;99.90
18101;DHT22;9177;49.156;8.142;2022-10-31T00:29:35;21.80;99.90
18101;DHT22;9177;49.156;8.142;2022-10-31T00:32:02;21.80;99.90
18101;DHT22;9177;49.156;8.142;2022-10-31T00:34:29;21.80;99.90
18101;DHT22;9177;49.156;8.142;2022-10-31T00:36:56;21.80;99.90
18101;DHT22;9177;49.156;8.142;2022-10-31T00:39:23;21.80;99.90
18101;DHT22;9177;49.156;8.142;2022-10-31T00:41:49;21.80;99.90
18101;DHT22;9177;49.156;8.142;2022-10-31T00:44:18;21.80;99.90
18101;DHT22;9177;49.156;8.142;2022-10-31T00:46:44;21.80;99.90
18101;DHT22;9177;49.156;8.142;2022-10-31T00:49:11;21.80;99.90
18101;DHT22;9177;49.156;8.142;2022-10-31T00:51:38;21.80;99.90
18101;DHT22;9177;49.156;8.142;2022-10-31T00:54:05;21.80;99.90
18101;DHT22;9177;49.156;8.142;2022-10-31T00:56:32;21.80;99.90
18101;DHT22;9177;49.156;8.142;2022-10-31T00:58:59;21.80;99.90
18101;DHT22;9177;49.156;8.142;2022-10-31T01:01:27;21.80;99.90
18101;DHT22;9177;49.156;8.142;2022-10-31T01:03:55;21.80;99.90
18101;DHT22;9177;49.156;8.142;2022-10-31T01:06:22;21.80;99.90
18101;DHT22;9177;49.156;8.142;2022-10-31T01:08:49;21.80;99.90
18101;DHT22;9177;49.156;8.142;2022-10-31T01:11:17;21.80;99.90
18101;DHT22;9177;49.156;8.142;2022-10-31T01:13:45;21.80;99.90
18101;DHT22;9177;49.156;8.142;2022-10-31T01:16:14;21.80;99.90
18101;DHT22;9177;49.156;8.142;2022-10-31T01:18:43;21.80;99.90
18101;DHT22;9177;49.156;8.142;2022-10-31T01:21:13;21.80;99.90
18101;DHT22;9177;49.156;8.142;2022-10-31T01:23:43;21.80;99.90
18101;DHT22;9177;49.156;8.142;2022-10-31T01:26:12;21.80;99.90
18101;DHT22;9177;49.156;8.142;2022-10-31T01:28:44;21.80;99.90
18101;DHT22;9177;49.156;8.142;2022-10-31T01:31:11;21.70;99.90
18101;DHT22;9177;49.156;8.142;2022-10-31T01:33:38;21.80;99.90
18101;DHT22;9177;49.156;8.142;2022-10-31T01:36:18;21.80;99.90
18101;DHT22;9177;49.156;8.142;2022-10-31T01:38:46;21.80;99.90
18101;DHT22;9177;49.156;8.142;2022-10-31T01:41:16;21.70;99.90
18101;DHT22;9177;49.156;8.142;2022-10-31T01:43:45;21.70;99.90
18101;DHT22;9177;49.156;8.142;2022-10-31T01:46:13;21.80;99.90
18101;DHT22;9177;49.156;8.142;2022-10-31T01:48:42;21.80;99.90
18101;DHT22;9177;49.156;8.142;2022-10-31T01:51:10;21.70;99.90
18101;DHT22;9177;49.156;8.142;2022-10-31T01:53:41;21.80;99.90
18101;DHT22;9177;49.156;8.142;2022-10-31T01:56:09;21.70;99.90
18101;DHT22;9177;49.156;8.142;2022-10-31T01:58:37;21.80;99.90
18101;DHT22;9177;49.156;8.142;2022-10-31T02:01:04;21.70;99.90
18101;DHT22;9177;49.156;8.142;2022-10-31T02:03:32;21.80;99.90
18101;DHT22;9177;49.156;8.142;2022-10-31T02:05:59;21.70;99.90
18101;DHT22;9177;49.156;8.142;2022-10-31T02:08:27;21.70;99.90
18101;DHT22;9177;49.156;8.142;2022-10-31T02:10:57;21.70;99.90
18101;DHT22;9177;49.156;8.142;2022-10-31T02:13:25;21.70;99.90
18101;DHT22;9177;49.156;8.142;2022-10-31T02:15:53;21.70;99.90
18101;DHT22;9177;49.156;8.142;2022-10-31T02:18:20;21.70;99.90
18101;DHT22;9177;49.156;8.142;2022-10-31T02:20:57;21.70;99.90
18101;DHT22;9177;49.156;8.142;2022-10-31T02:24:00;21.70;99.90
18101;DHT22;9177;49.156;8.142;2022-10-31T02:26:51;21.70;99.90
18101;DHT22;9177;49.156;8.142;2022-10-31T02:29:45;21.70;99.90
18101;DHT22;9177;49.156;8.142;2022-10-31T02:32:23;21.70;99.90
18101;DHT22;9177;49.156;8.142;2022-10-31T02:34:57;21.70;99.90
18101;DHT22;9177;49.156;8.142;2022-10-31T02:37:29;21.70;99.90
18101;DHT22;9177;49.156;8.142;2022-10-31T02:40:05;21.70;99.90
18101;DHT22;9177;49.156;8.142;2022-10-31T02:42:41;21.70;99.90
18101;DHT22;9177;49.156;8.142;2022-10-31T02:45:13;21.70;99.90
18101;DHT22;9177;49.156;8.142;2022-10-31T02:47:42;21.70;99.90
18101;DHT22;9177;49.156;8.142;2022-10-31T02:50:13;21.70;99.90
18101;DHT22;9177;49.156;8.142;2022-10-31T02:52:41;21.70;99.90
18101;DHT22;9177;49.156;8.142;2022-10-31T02:55:40;21.70;99.90
18101;DHT22;9177;49.156;8.142;2022-10-31T02:58:02;21.70;99.90
18101;DHT22;9177;49.156;8.142;2022-10-31T03:00:39;21.70;99.90
18101;DHT22;9177;49.156;8.142;2022-10-31T03:03:12;21.70;99.90
18101;DHT22;9177;49.156;8.142;2022-10-31T03:05:48;21.70;99.90
18101;DHT22;9177;49.156;8.142;2022-10-31T03:08:24;21.70;99.90
18101;DHT22;9177;49.156;8.142;2022-10-31T03:10:58;21.70;99.90
18101;DHT22;9177;49.156;8.142;2022-10-31T03:13:32;21.70;99.90
18101;DHT22;9177;49.156;8.142;2022-10-31T03:16:06;21.70;99.90
18101;DHT22;9177;49.156;8.142;2022-10-31T03:18:40;21.70;99.90
18101;DHT22;9177;49.156;8.142;2022-10-31T03:21:09;21.70;99.90
18101;DHT22;9177;49.156;8.142;2022-10-31T03:23:39;21.70;99.90
18101;DHT22;9177;49.156;8.142;2022-10-31T03:26:08;21.70;99.90
18101;DHT22;9177;49.156;8.142;2022-10-31T03:28:39;21.70;99.90
18101;DHT22;9177;49.156;8.142;2022-10-31T03:31:09;21.70;99.90
18101;DHT22;9177;49.156;8.142;2022-10-31T03:33:39;21.70;99.90
18101;DHT22;9177;49.156;8.142;2022-10-31T03:36:08;21.70;99.90
18101;DHT22;9177;49.156;8.142;2022-10-31T03:38:37;21.60;99.90
18101;DHT22;9177;49.156;8.142;2022-10-31T03:41:07;21.70;99.90
18101;DHT22;9177;49.156;8.142;2022-10-31T03:43:45;21.70;99.90
18101;DHT22;9177;49.156;8.142;2022-10-31T03:46:18;21.70;99.90
18101;DHT22;9177;49.156;8.142;2022-10-31T03:48:46;21.60;99.90
18101;DHT22;9177;49.156;8.142;2022-10-31T03:51:18;21.70;99.90
18101;DHT22;9177;49.156;8.142;2022-10-31T03:53:54;21.70;99.90
18101;DHT22;9177;49.156;8.142;2022-10-31T03:56:28;21.70;99.90
18101;DHT22;9177;49.156;8.142;2022-10-31T03:58:58;21.60;99.90
18101;DHT22;9177;49.156;8.142;2022-10-31T04:01:28;21.60;99.90
18101;DHT22;9177;49.156;8.142;2022-10-31T04:04:01;21.70;99.90
18101;DHT22;9177;49.156;8.142;2022-10-31T04:06:30;21.60;99.90
18101;DHT22;9177;49.156;8.142;2022-10-31T04:09:00;21.70;99.90
18101;DHT22;9177;49.156;8.142;2022-10-31T04:11:30;21.70;99.90
18101;DHT22;9177;49.156;8.142;2022-10-31T04:13:59;21.60;99.90
18101;DHT22;9177;49.156;8.142;2022-10-31T04:16:27;21.70;99.90
18101;DHT22;9177;49.156;8.142;2022-10-31T04:18:54;21.60;99.90
18101;DHT22;9177;49.156;8.142;2022-10-31T04:21:27;21.60;99.90
18101;DHT22;9177;49.156;8.142;2022-10-31T04:23:54;21.60;99.90
18101;DHT22;9177;49.156;8.142;2022-10-31T04:26:22;21.70;99.90
18101;DHT22;9177;49.156;8.142;2022-10-31T04:28:48;21.70;99.90
18101;DHT22;9177;49.156;8.142;2022-10-31T04:31:15;21.70;99.90
18101;DHT22;9177;49.156;8.142;2022-10-31T04:33:42;21.70;99.90
18101;DHT22;9177;49.156;8.142;2022-10-31T04:36:09;21.70;99.90
18101;DHT22;9177;49.156;8.142;2022-10-31T04:38:37;21.70;99.90
18101;DHT22;9177;49.156;8.142;2022-10-31T04:41:05;21.70;99.90
18101;DHT22;9177;49.156;8.142;2022-10-31T04:43:31;21.70;99.90
18101;DHT22;9177;49.156;8.142;2022-10-31T04:45:58;21.60;99.90
18101;DHT22;9177;49.156;8.142;2022-10-31T04:48:25;21.70;99.90
18101;DHT22;9177;49.156;8.142;2022-10-31T04:50:52;21.70;99.90
18101;DHT22;9177;49.156;8.142;2022-10-31T04:53:18;21.70;99.90
18101;DHT22;9177;49.156;8.142;2022-10-31T04:55:47;21.70;99.90
18101;DHT22;9177;49.156;8.142;2022-10-31T04:58:14;21.70;99.90
18101;DHT22;9177;49.156;8.142;2022-10-31T05:00:40;21.70;99.90
18101;DHT22;9177;49.156;8.142;2022-10-31T05:03:07;21.70;99.90
18101;DHT22;9177;49.156;8.142;2022-10-31T05:05:34;21.70;99.90
18101;DHT22;9177;49.156;8.142;2022-10-31T05:08:01;21.70;99.90
18101;DHT22;9177;49.156;8.142;2022-10-31T05:10:29;21.70;99.90
18101;DHT22;9177;49.156;8.142;2022-10-31T05:12:59;21.70;99.90
18101;DHT22;9177;49.156;8.142;2022-10-31T05:15:27;21.70;99.90
18101;DHT22;9177;49.156;8.142;2022-10-31T05:17:54;21.70;99.90
18101;DHT22;9177;49.156;8.142;2022-10-31T05:20:23;21.70;99.90
18101;DHT22;9177;49.156;8.142;2022-10-31T05:22:51;21.70;99.90
18101;DHT22;9177;49.156;8.142;2022-10-31T05:25:21;21.70;99.90
18101;DHT22;9177;49.156;8.142;2022-10-31T05:27:49;21.70;99.90
18101;DHT22;9177;49.156;8.142;2022-10-31T05:30:19;21.70;99.90
18101;DHT22;9177;49.156;8.142;2022-10-31T05:32:52;21.70;99.90
18101;DHT22;9177;49.156;8.142;2022-10-31T05:35:20;21.70;99.90
18101;DHT22;9177;49.156;8.142;2022-10-31T05:37:48;21.70;99.90
18101;DHT22;9177;49.156;8.142;2022-10-31T05:40:17;21.70;99.90
18101;DHT22;9177;49.156;8.142;2022-10-31T05:42:44;21.70;99.90
18101;DHT22;9177;49.156;8.142;2022-10-31T05:45:13;21.70;99.90
18101;DHT22;9177;49.156;8.142;2022-10-31T05:47:41;21.70;99.90
18101;DHT22;9177;49.156;8.142;2022-10-31T05:50:09;21.70;99.90
18101;DHT22;9177;49.156;8.142;2022-10-31T05:52:36;21.70;99.90
18101;DHT22;9177;49.156;8.142;2022-10-31T05:55:03;21.70;99.90
18101;DHT22;9177;49.156;8.142;2022-10-31T05:57:32;21.70;99.90
18101;DHT22;9177;49.156;8.142;2022-10-31T05:59:59;21.70;99.90
18101;DHT22;9177;49.156;8.142;2022-10-31T06:02:26;21.70;99.90
18101;DHT22;9177;49.156;8.142;2022-10-31T06:04:59;21.70;99.90
18101;DHT22;9177;49.156;8.142;2022-10-31T06:07:27;21.70;99.90
18101;DHT22;9177;49.156;8.142;2022-10-31T06:09:53;21.70;99.90
18101;DHT22;9177;49.156;8.142;2022-10-31T06:12:20;21.70;99.90
18101;DHT22;9177;49.156;8.142;2022-10-31T06:14:47;21.70;99.90
18101;DHT22;9177;49.156;8.142;2022-10-31T06:17:14;21.70;99.90
18101;DHT22;9177;49.156;8.142;2022-10-31T06:19:42;21.70;99.90
18101;DHT22;9177;49.156;8.142;2022-10-31T06:22:11;21.70;99.90
18101;DHT22;9177;49.156;8.142;2022-10-31T06:24:38;21.70;99.90
18101;DHT22;9177;49.156;8.142;2022-10-31T06:27:05;21.70;99.90
18101;DHT22;9177;49.156;8.142;2022-10-31T06:29:32;21.70;99.90
18101;DHT22;9177;49.156;8.142;2022-10-31T06:31:59;21.70;99.90
18101;DHT22;9177;49.156;8.142;2022-10-31T06:34:26;21.70;99.90
18101;DHT22;9177;49.156;8.142;2022-10-31T06:36:53;21.70;99.90
18101;DHT22;9177;49.156;8.142;2022-10-31T06:39:21;21.70;99.90
18101;DHT22;9177;49.156;8.142;2022-10-31T06:41:48;21.70;99.90
18101;DHT22;9177;49.156;8.142;2022-10-31T06:44:15;21.70;99.90
18101;DHT22;9177;49.156;8.142;2022-10-31T06:46:42;21.70;99.90
18101;DHT22;9177;49.156;8.142;2022-10-31T06:49:09;21.70;99.90
18101;DHT22;9177;49.156;8.142;2022-10-31T06:51:35;21.70;99.90
18101;DHT22;9177;49.156;8.142;2022-10-31T06:54:02;21.70;99.90
18101;DHT22;9177;49.156;8.142;2022-10-31T06:56:31;21.70;99.90
18101;DHT22;9177;49.156;8.142;2022-10-31T06:58:58;21.70;99.90
18101;DHT22;9177;49.156;8.142;2022-10-31T07:01:24;21.70;99.90
18101;DHT22;9177;49.156;8.142;2022-10-31T07:03:51;21.70;99.90
18101;DHT22;9177;49.156;8.142;2022-10-31T07:06:18;21.70;99.90
18101;DHT22;9177;49.156;8.142;2022-10-31T07:08:47;21.70;99.90
18101;DHT22;9177;49.156;8.142;2022-10-31T07:11:14;21.70;99.90
18101;DHT22;9177;49.156;8.142;2022-10-31T07:13:43;21.70;99.90
18101;DHT22;9177;49.156;8.142;2022-10-31T07:16:10;21.70;99.90
18101;DHT22;9177;49.156;8.142;2022-10-31T07:18:39;21.70;99.90
18101;DHT22;9177;49.156;8.142;2022-10-31T07:21:06;21.70;99.90
18101;DHT22;9177;49.156;8.142;2022-10-31T07:23:32;21.70;99.90
18101;DHT22;9177;49.156;8.142;2022-10-31T07:25:59;21.80;99.90
18101;DHT22;9177;49.156;8.142;2022-10-31T07:28:27;21.80;99.90
18101;DHT22;9177;49.156;8.142;2022-10-31T07:30:57;21.80;99.90
18101;DHT22;9177;49.156;8.142;2022-10-31T07:33:24;21.80;99.90
18101;DHT22;9177;49.156;8.142;2022-10-31T07:35:53;21.80;99.90
18101;DHT22;9177;49.156;8.142;2022-10-31T07:38:20;21.80;99.90
18101;DHT22;9177;49.156;8.142;2022-10-31T07:40:50;21.80;99.90
18101;DHT22;9177;49.156;8.142;2022-10-31T07:43:18;21.80;99.90
18101;DHT22;9177;49.156;8.142;2022-10-31T07:45:49;21.80;99.90
18101;DHT22;9177;49.156;8.142;2022-10-31T07:48:17;21.80;99.90
18101;DHT22;9177;49.156;8.142;2022-10-31T07:50:44;21.80;99.90
18101;DHT22;9177;49.156;8.142;2022-10-31T07:53:13;21.90;99.90
18101;DHT22;9177;49.156;8.142;2022-10-31T07:55:40;21.80;99.90
18101;DHT22;9177;49.156;8.142;2022-10-31T07:58:09;21.90;99.90
18101;DHT22;9177;49.156;8.142;2022-10-31T08:00:42;21.90;99.90
18101;DHT22;9177;49.156;8.142;2022-10-31T08:03:11;21.90;99.90
18101;DHT22;9177;49.156;8.142;2022-10-31T08:05:39;21.90;99.90
18101;DHT22;9177;49.156;8.142;2022-10-31T08:08:07;21.90;99.90
18101;DHT22;9177;49.156;8.142;2022-10-31T08:10:34;21.90;99.90
18101;DHT22;9177;49.156;8.142;2022-10-31T08:13:03;21.90;99.90
18101;DHT22;9177;49.156;8.142;2022-10-31T08:15:30;21.90;99.90
18101;DHT22;9177;49.156;8.142;2022-10-31T08:17:59;21.90;99.90
18101;DHT22;9177;49.156;8.142;2022-10-31T08:20:27;21.90;99.90
18101;DHT22;9177;49.156;8.142;2022-10-31T08:22:57;21.90;99.90
18101;DHT22;9177;49.156;8.142;2022-10-31T08:25:25;21.90;99.90
18101;DHT22;9177;49.156;8.142;2022-10-31T08:27:54;21.90;99.90
18101;DHT22;9177;49.156;8.142;2022-10-31T08:30:25;21.90;99.90
18101;DHT22;9177;49.156;8.142;2022-10-31T08:32:59;21.90;99.90
18101;DHT22;9177;49.156;8.142;2022-10-31T08:35:26;22.00;99.90
18101;DHT22;9177;49.156;8.142;2022-10-31T08:37:54;21.90;99.90
18101;DHT22;9177;49.156;8.142;2022-10-31T08:40:23;22.00;99.90
18101;DHT22;9177;49.156;8.142;2022-10-31T08:42:58;22.00;99.90
18101;DHT22;9177;49.156;8.142;2022-10-31T08:45:26;22.00;99.90
18101;DHT22;9177;49.156;8.142;2022-10-31T08:47:57;22.00;99.90
18101;DHT22;9177;49.156;8.142;2022-10-31T08:50:25;22.00;99.90
18101;DHT22;9177;49.156;8.142;2022-10-31T08:52:52;22.00;99.90
18101;DHT22;9177;49.156;8.142;2022-10-31T08:55:19;22.00;99.90
18101;DHT22;9177;49.156;8.142;2022-10-31T08:57:47;22.00;99.90
18101;DHT22;9177;49.156;8.142;2022-10-31T09:00:14;22.00;99.90
18101;DHT22;9177;49.156;8.142;2022-10-31T09:02:41;22.00;99.90
18101;DHT22;9177;49.156;8.142;2022-10-31T09:05:08;22.00;99.90
18101;DHT22;9177;49.156;8.142;2022-10-31T09:07:35;22.00;99.90
18101;DHT22;9177;49.156;8.142;2022-10-31T09:10:02;22.00;99.90
18101;DHT22;9177;49.156;8.142;2022-10-31T09:12:29;22.00;99.90
18101;DHT22;9177;49.156;8.142;2022-10-31T09:14:57;22.10;99.90
18101;DHT22;9177;49.156;8.142;2022-10-31T09:17:26;22.10;99.90
18101;DHT22;9177;49.156;8.142;2022-10-31T09:19:54;22.00;99.90
18101;DHT22;9177;49.156;8.142;2022-10-31T09:22:21;22.00;99.90
18101;DHT22;9177;49.156;8.142;2022-10-31T09:24:48;22.00;99.90
18101;DHT22;9177;49.156;8.142;2022-10-31T09:27:15;22.10;99.90
18101;DHT22;9177;49.156;8.142;2022-10-31T09:29:42;22.00;99.90
18101;DHT22;9177;49.156;8.142;2022-10-31T09:32:14;22.10;99.90
18101;DHT22;9177;49.156;8.142;2022-10-31T09:34:41;22.10;99.90
18101;DHT22;9177;49.156;8.142;2022-10-31T09:37:12;22.00;99.90
18101;DHT22;9177;49.156;8.142;2022-10-31T09:39:39;22.00;99.90
18101;DHT22;9177;49.156;8.142;2022-10-31T09:42:38;22.00;99.90
18101;DHT22;9177;49.156;8.142;2022-10-31T09:45:13;22.00;99.90
18101;DHT22;9177;49.156;8.142;2022-10-31T09:47:54;22.10;99.90
18101;DHT22;9177;49.156;8.142;2022-10-31T09:50:27;22.10;99.90
18101;DHT22;9177;49.156;8.142;2022-10-31T09:53:00;22.10;99.90
18101;DHT22;9177;49.156;8.142;2022-10-31T09:55:35;22.10;99.90
18101;DHT22;9177;49.156;8.142;2022-10-31T09:58:03;22.10;99.90
18101;DHT22;9177;49.156;8.142;2022-10-31T10:00:31;22.10;99.90
18101;DHT22;9177;49.156;8.142;2022-10-31T10:03:10;22.10;99.90
18101;DHT22;9177;49.156;8.142;2022-10-31T10:05:51;22.20;99.90
18101;DHT22;9177;49.156;8.142;2022-10-31T10:08:23;22.20;99.90
18101;DHT22;9177;49.156;8.142;2022-10-31T10:10:59;22.20;99.90
18101;DHT22;9177;49.156;8.142;2022-10-31T10:13:41;22.20;99.90
18101;DHT22;9177;49.156;8.142;2022-10-31T10:16:18;22.20;99.90
18101;DHT22;9177;49.156;8.142;2022-10-31T10:18:58;22.20;99.90
18101;DHT22;9177;49.156;8.142;2022-10-31T10:21:35;22.20;99.90
18101;DHT22;9177;49.156;8.142;2022-10-31T10:24:17;22.20;99.90
18101;DHT22;9177;49.156;8.142;2022-10-31T10:26:50;22.30;99.90
18101;DHT22;9177;49.156;8.142;2022-10-31T10:29:31;22.30;99.90
18101;DHT22;9177;49.156;8.142;2022-10-31T10:32:02;22.30;99.90
18101;DHT22;9177;49.156;8.142;2022-10-31T10:34:37;22.30;99.90
18101;DHT22;9177;49.156;8.142;2022-10-31T10:37:15;22.30;99.90
18101;DHT22;9177;49.156;8.142;2022-10-31T10:39:47;22.30;99.90
18101;DHT22;9177;49.156;8.142;2022-10-31T10:42:16;22.40;99.90
18101;DHT22;9177;49.156;8.142;2022-10-31T10:45:14;22.40;99.90
18101;DHT22;9177;49.156;8.142;2022-10-31T10:48:06;22.40;99.90
18101;DHT22;9177;49.156;8.142;2022-10-31T10:50:41;22.30;99.90
18101;DHT22;9177;49.156;8.142;2022-10-31T10:53:17;22.40;99.90
18101;DHT22;9177;49.156;8.142;2022-10-31T10:56:02;22.30;99.90
18101;DHT22;9177;49.156;8.142;2022-10-31T10:58:31;22.30;99.90
18101;DHT22;9177;49.156;8.142;2022-10-31T11:00:58;22.40;99.90
18101;DHT22;9177;49.156;8.142;2022-10-31T11:03:25;22.30;99.90
18101;DHT22;9177;49.156;8.142;2022-10-31T11:05:55;22.30;99.90
18101;DHT22;9177;49.156;8.142;2022-10-31T11:08:24;22.30;99.90
18101;DHT22;9177;49.156;8.142;2022-10-31T11:10:59;22.40;99.90
18101;DHT22;9177;49.156;8.142;2022-10-31T11:13:27;22.30;99.90
18101;DHT22;9177;49.156;8.142;2022-10-31T11:16:02;22.30;99.90
18101;DHT22;9177;49.156;8.142;2022-10-31T11:18:30;22.30;99.90
18101;DHT22;9177;49.156;8.142;2022-10-31T11:21:03;22.30;99.90
18101;DHT22;9177;49.156;8.142;2022-10-31T11:23:31;22.30;99.90
18101;DHT22;9177;49.156;8.142;2022-10-31T11:26:01;22.30;99.90
18101;DHT22;9177;49.156;8.142;2022-10-31T11:28:30;22.30;99.90
18101;DHT22;9177;49.156;8.142;2022-10-31T11:30:59;22.30;99.90
18101;DHT22;9177;49.156;8.142;2022-10-31T11:33:30;22.30;99.90
18101;DHT22;9177;49.156;8.142;2022-10-31T11:35:59;22.30;99.90
18101;DHT22;9177;49.156;8.142;2022-10-31T11:38:33;22.30;99.90
18101;DHT22;9177;49.156;8.142;2022-10-31T11:41:09;22.20;99.90
18101;DHT22;9177;49.156;8.142;2022-10-31T11:43:37;22.20;99.90
18101;DHT22;9177;49.156;8.142;2022-10-31T11:46:09;22.20;99.90
18101;DHT22;9177;49.156;8.142;2022-10-31T11:48:37;22.20;99.90
18101;DHT22;9177;49.156;8.142;2022-10-31T11:51:04;22.20;99.90
18101;DHT22;9177;49.156;8.142;2022-10-31T11:53:34;22.20;99.90
18101;DHT22;9177;49.156;8.142;2022-10-31T11:56:03;22.20;99.90
18101;DHT22;9177;49.156;8.142;2022-10-31T11:58:31;22.20;99.90
18101;DHT22;9177;49.156;8.142;2022-10-31T12:00:59;22.10;99.90
18101;DHT22;9177;49.156;8.142;2022-10-31T12:03:38;22.20;99.90
18101;DHT22;9177;49.156;8.142;2022-10-31T12:06:12;22.20;99.90
18101;DHT22;9177;49.156;8.142;2022-10-31T12:08:41;22.10;99.90
18101;DHT22;9177;49.156;8.142;2022-10-31T12:11:17;22.20;99.90
18101;DHT22;9177;49.156;8.142;2022-10-31T12:14:00;22.20;99.90
18101;DHT22;9177;49.156;8.142;2022-10-31T12:16:32;22.10;99.90
18101;DHT22;9177;49.156;8.142;2022-10-31T12:19:05;22.10;99.90
18101;DHT22;9177;49.156;8.142;2022-10-31T12:21:45;22.10;99.90
18101;DHT22;9177;49.156;8.142;2022-10-31T12:24:27;22.10;99.90
18101;DHT22;9177;49.156;8.142;2022-10-31T12:27:06;22.10;99.90
18101;DHT22;9177;49.156;8.142;2022-10-31T12:29:47;22.10;99.90
18101;DHT22;9177;49.156;8.142;2022-10-31T12:32:29;22.10;99.90
18101;DHT22;9177;49.156;8.142;2022-10-31T12:35:13;22.10;99.90
18101;DHT22;9177;49.156;8.142;2022-10-31T12:37:52;22.10;99.90
18101;DHT22;9177;49.156;8.142;2022-10-31T12:40:39;22.10;99.90
18101;DHT22;9177;49.156;8.142;2022-10-31T12:43:20;22.10;99.90
18101;DHT22;9177;49.156;8.142;2022-10-31T12:45:54;22.10;99.90
18101;DHT22;9177;49.156;8.142;2022-10-31T12:49:02;22.00;99.90
18101;DHT22;9177;49.156;8.142;2022-10-31T12:51:45;22.00;99.90
18101;DHT22;9177;49.156;8.142;2022-10-31T12:54:30;22.00;99.90
18101;DHT22;9177;49.156;8.142;2022-10-31T12:57:11;22.00;99.90
18101;DHT22;9177;49.156;8.142;2022-10-31T12:59:42;22.00;99.90
18101;DHT22;9177;49.156;8.142;2022-10-31T13:02:16;22.10;99.90
18101;DHT22;9177;49.156;8.142;2022-10-31T13:04:49;22.20;99.90
18101;DHT22;9177;49.156;8.142;2022-10-31T13:07:24;22.40;99.90
18101;DHT22;9177;49.156;8.142;2022-10-31T13:09:57;22.60;99.90
18101;DHT22;9177;49.156;8.142;2022-10-31T13:12:28;22.70;99.90
18101;DHT22;9177;49.156;8.142;2022-10-31T13:14:58;22.90;99.90
18101;DHT22;9177;49.156;8.142;2022-10-31T13:17:29;23.00;99.90
18101;DHT22;9177;49.156;8.142;2022-10-31T13:20:13;23.00;99.90
18101;DHT22;9177;49.156;8.142;2022-10-31T13:22:44;23.20;99.90
18101;DHT22;9177;49.156;8.142;2022-10-31T13:25:15;23.20;99.90
18101;DHT22;9177;49.156;8.142;2022-10-31T13:27:50;23.30;99.90
18101;DHT22;9177;49.156;8.142;2022-10-31T13:30:20;23.40;99.90
18101;DHT22;9177;49.156;8.142;2022-10-31T13:32:54;23.40;99.90
18101;DHT22;9177;49.156;8.142;2022-10-31T13:35:28;23.50;99.90
18101;DHT22;9177;49.156;8.142;2022-10-31T13:38:05;23.50;99.90
18101;DHT22;9177;49.156;8.142;2022-10-31T13:40:37;23.50;99.90
18101;DHT22;9177;49.156;8.142;2022-10-31T13:43:18;23.60;99.90
18101;DHT22;9177;49.156;8.142;2022-10-31T13:45:50;23.60;99.90
18101;DHT22;9177;49.156;8.142;2022-10-31T13:48:32;23.50;99.90
18101;DHT22;9177;49.156;8.142;2022-10-31T13:51:01;23.40;99.90
18101;DHT22;9177;49.156;8.142;2022-10-31T13:53:41;23.30;99.90
18101;DHT22;9177;49.156;8.142;2022-10-31T13:56:16;23.20;99.90
18101;DHT22;9177;49.156;8.142;2022-10-31T13:59:15;23.10;99.90
18101;DHT22;9177;49.156;8.142;2022-10-31T14:01:52;23.00;99.90
18101;DHT22;9177;49.156;8.142;2022-10-31T14:04:21;23.00;99.90
18101;DHT22;9177;49.156;8.142;2022-10-31T14:07:04;22.90;99.90
18101;DHT22;9177;49.156;8.142;2022-10-31T14:09:33;22.90;99.90
18101;DHT22;9177;49.156;8.142;2022-10-31T14:12:08;22.80;99.90
18101;DHT22;9177;49.156;8.142;2022-10-31T14:14:46;22.80;99.90
18101;DHT22;9177;49.156;8.142;2022-10-31T14:17:20;22.70;99.90
18101;DHT22;9177;49.156;8.142;2022-10-31T14:20:01;22.70;99.90
18101;DHT22;9177;49.156;8.142;2022-10-31T14:22:32;22.70;99.90
18101;DHT22;9177;49.156;8.142;2022-10-31T14:25:00;22.60;99.90
18101;DHT22;9177;49.156;8.142;2022-10-31T14:27:45;22.50;99.90
18101;DHT22;9177;49.156;8.142;2022-10-31T14:30:19;22.50;99.90
18101;DHT22;9177;49.156;8.142;2022-10-31T14:32:51;22.40;99.90
18101;DHT22;9177;49.156;8.142;2022-10-31T14:35:21;22.40;99.90
18101;DHT22;9177;49.156;8.142;2022-10-31T14:38:02;22.40;99.90
18101;DHT22;9177;49.156;8.142;2022-10-31T14:40:39;22.40;99.90
18101;DHT22;9177;49.156;8.142;2022-10-31T14:43:29;22.30;99.90
18101;DHT22;9177;49.156;8.142;2022-10-31T14:46:01;22.30;99.90
18101;DHT22;9177;49.156;8.142;2022-10-31T14:49:06;22.20;99.90
18101;DHT22;9177;49.156;8.142;2022-10-31T14:51:40;22.20;99.90
18101;DHT22;9177;49.156;8.142;2022-10-31T14:54:13;22.20;99.90
18101;DHT22;9177;49.156;8.142;2022-10-31T14:56:47;22.20;99.90
18101;DHT22;9177;49.156;8.142;2022-10-31T14:59:19;22.20;99.90
18101;DHT22;9177;49.156;8.142;2022-10-31T15:01:56;22.10;99.90
18101;DHT22;9177;49.156;8.142;2022-10-31T15:04:25;22.10;99.90
18101;DHT22;9177;49.156;8.142;2022-10-31T15:06:57;22.10;99.90
18101;DHT22;9177;49.156;8.142;2022-10-31T15:09:29;22.10;99.90
18101;DHT22;9177;49.156;8.142;2022-10-31T15:11:58;22.10;99.90
18101;DHT22;9177;49.156;8.142;2022-10-31T15:14:27;22.10;99.90
18101;DHT22;9177;49.156;8.142;2022-10-31T15:16:58;22.10;99.90
18101;DHT22;9177;49.156;8.142;2022-10-31T15:19:28;22.00;99.90
18101;DHT22;9177;49.156;8.142;2022-10-31T15:21:56;22.00;99.90
18101;DHT22;9177;49.156;8.142;2022-10-31T15:24:27;22.00;99.90
18101;DHT22;9177;49.156;8.142;2022-10-31T15:26:57;22.00;99.90
18101;DHT22;9177;49.156;8.142;2022-10-31T15:29:25;22.00;99.90
18101;DHT22;9177;49.156;8.142;2022-10-31T15:31:54;22.00;99.90
18101;DHT22;9177;49.156;8.142;2022-10-31T15:34:29;22.00;99.90
18101;DHT22;9177;49.156;8.142;2022-10-31T15:36:59;22.00;99.90
18101;DHT22;9177;49.156;8.142;2022-10-31T15:39:26;22.00;99.90
18101;DHT22;9177;49.156;8.142;2022-10-31T15:41:54;22.00;99.90
18101;DHT22;9177;49.156;8.142;2022-10-31T15:44:24;22.00;99.90
18101;DHT22;9177;49.156;8.142;2022-10-31T15:46:54;22.00;99.90
18101;DHT22;9177;49.156;8.142;2022-10-31T15:49:29;22.00;99.90
18101;DHT22;9177;49.156;8.142;2022-10-31T15:52:03;21.90;99.90
18101;DHT22;9177;49.156;8.142;2022-10-31T15:54:43;21.90;99.90
18101;DHT22;9177;49.156;8.142;2022-10-31T15:57:14;21.90;99.90
18101;DHT22;9177;49.156;8.142;2022-10-31T15:59:45;21.90;99.90
18101;DHT22;9177;49.156;8.142;2022-10-31T16:02:14;21.90;99.90
18101;DHT22;9177;49.156;8.142;2022-10-31T16:04:52;21.90;99.90
18101;DHT22;9177;49.156;8.142;2022-10-31T16:07:19;21.90;99.90
18101;DHT22;9177;49.156;8.142;2022-10-31T16:09:54;21.90;99.90